Macy, Nebraska
Current Conditions -  °F | °C
As of 10:52 AM on Thursday 27 Nov 2014 (Local Time) from KSUX Reporting Station
Overcast Overcast  
Wind Chill: -1°   Ceiling: 4300
Heat Index: 11°   Visibility: 10mi
Dew Point: -3°   Wind: 8mph
Humidity: 54%   Direction: 100°E
Pressure: 30.53"   Gusts: NA
Location:  42.11°N, 96.36°W
Report Text: KSUX 271652Z 10007KT 10SM BKN043 OVC055 M12/M19 A3053 RMK AO2 SLP362 T11171194
Loading
Personal Weather Stations






























Interactive Weather Map New forecast layout! Learn more

10-Day Weather Forecast

Advertisements
Track Severe Weather on mobile